sensor_id;sensor_type;location;lat;lon;timestamp;temperature;humidity
72202;SHT30;60105;54.956;73.412;2022-08-03T00:01:43;14.48;73.79
72202;SHT30;60105;54.956;73.412;2022-08-03T00:04:10;14.45;73.93
72202;SHT30;60105;54.956;73.412;2022-08-03T00:06:46;14.45;73.69
72202;SHT30;60105;54.956;73.412;2022-08-03T00:09:17;14.48;73.66
72202;SHT30;60105;54.956;73.412;2022-08-03T00:11:48;14.49;73.84
72202;SHT30;60105;54.956;73.412;2022-08-03T00:14:15;14.46;73.94
72202;SHT30;60105;54.956;73.412;2022-08-03T00:16:41;14.49;73.66
72202;SHT30;60105;54.956;73.412;2022-08-03T00:19:07;14.51;73.68
72202;SHT30;60105;54.956;73.412;2022-08-03T00:21:33;14.54;73.82
72202;SHT30;60105;54.956;73.412;2022-08-03T00:23:59;14.55;73.57
72202;SHT30;60105;54.956;73.412;2022-08-03T00:26:31;14.60;73.30
72202;SHT30;60105;54.956;73.412;2022-08-03T00:28:58;14.61;73.32
72202;SHT30;60105;54.956;73.412;2022-08-03T00:31:24;14.64;73.08
72202;SHT30;60105;54.956;73.412;2022-08-03T00:33:50;14.65;72.99
72202;SHT30;60105;54.956;73.412;2022-08-03T00:36:16;14.69;72.93
72202;SHT30;60105;54.956;73.412;2022-08-03T00:38:42;14.72;72.95
72202;SHT30;60105;54.956;73.412;2022-08-03T00:41:14;14.71;73.07
72202;SHT30;60105;54.956;73.412;2022-08-03T00:43:42;14.69;73.08
72202;SHT30;60105;54.956;73.412;2022-08-03T00:46:17;14.71;72.96
72202;SHT30;60105;54.956;73.412;2022-08-03T00:48:43;14.76;72.81
72202;SHT30;60105;54.956;73.412;2022-08-03T00:51:14;14.81;72.57
72202;SHT30;60105;54.956;73.412;2022-08-03T00:53:41;14.82;72.30
72202;SHT30;60105;54.956;73.412;2022-08-03T00:56:08;14.88;72.04
72202;SHT30;60105;54.956;73.412;2022-08-03T00:58:34;14.91;71.65
72202;SHT30;60105;54.956;73.412;2022-08-03T01:01:00;14.98;71.72
72202;SHT30;60105;54.956;73.412;2022-08-03T01:03:26;14.96;71.83
72202;SHT30;60105;54.956;73.412;2022-08-03T01:08:43;15.04;71.43
72202;SHT30;60105;54.956;73.412;2022-08-03T01:14:12;15.16;71.11
72202;SHT30;60105;54.956;73.412;2022-08-03T01:17:02;15.24;70.79
72202;SHT30;60105;54.956;73.412;2022-08-03T01:31:04;15.32;70.09
72202;SHT30;60105;54.956;73.412;2022-08-03T01:33:47;15.40;70.41
72202;SHT30;60105;54.956;73.412;2022-08-03T01:36:30;15.47;69.72
72202;SHT30;60105;54.956;73.412;2022-08-03T01:39:00;15.57;69.50
72202;SHT30;60105;54.956;73.412;2022-08-03T01:41:35;15.58;69.70
72202;SHT30;60105;54.956;73.412;2022-08-03T01:44:06;15.55;69.12
72202;SHT30;60105;54.956;73.412;2022-08-03T01:46:45;15.57;69.61
72202;SHT30;60105;54.956;73.412;2022-08-03T01:49:15;15.63;69.87
72202;SHT30;60105;54.956;73.412;2022-08-03T01:51:52;15.70;69.48
72202;SHT30;60105;54.956;73.412;2022-08-03T01:54:22;15.71;69.30
72202;SHT30;60105;54.956;73.412;2022-08-03T01:56:50;15.77;69.49
72202;SHT30;60105;54.956;73.412;2022-08-03T01:59:18;15.80;69.16
72202;SHT30;60105;54.956;73.412;2022-08-03T02:01:45;15.81;69.23
72202;SHT30;60105;54.956;73.412;2022-08-03T02:04:16;15.88;69.27
72202;SHT30;60105;54.956;73.412;2022-08-03T02:06:44;15.95;69.25
72202;SHT30;60105;54.956;73.412;2022-08-03T02:09:12;16.00;68.94
72202;SHT30;60105;54.956;73.412;2022-08-03T02:11:39;16.01;68.94
72202;SHT30;60105;54.956;73.412;2022-08-03T02:14:13;16.05;68.78
72202;SHT30;60105;54.956;73.412;2022-08-03T02:16:41;16.06;69.68
72202;SHT30;60105;54.956;73.412;2022-08-03T02:19:13;16.04;69.02
72202;SHT30;60105;54.956;73.412;2022-08-03T02:21:42;16.12;68.55
72202;SHT30;60105;54.956;73.412;2022-08-03T02:24:10;16.22;68.72
72202;SHT30;60105;54.956;73.412;2022-08-03T02:26:37;16.28;68.54
72202;SHT30;60105;54.956;73.412;2022-08-03T02:29:10;16.39;68.15
72202;SHT30;60105;54.956;73.412;2022-08-03T02:31:39;16.48;68.37
72202;SHT30;60105;54.956;73.412;2022-08-03T02:34:12;16.53;68.44
72202;SHT30;60105;54.956;73.412;2022-08-03T02:36:41;16.64;68.13
72202;SHT30;60105;54.956;73.412;2022-08-03T02:39:10;16.73;67.62
72202;SHT30;60105;54.956;73.412;2022-08-03T02:41:47;16.83;67.64
72202;SHT30;60105;54.956;73.412;2022-08-03T02:44:16;16.91;67.61
72202;SHT30;60105;54.956;73.412;2022-08-03T02:46:45;17.00;67.99
72202;SHT30;60105;54.956;73.412;2022-08-03T02:49:15;17.06;67.55
72202;SHT30;60105;54.956;73.412;2022-08-03T02:51:44;17.15;67.51
72202;SHT30;60105;54.956;73.412;2022-08-03T02:54:14;17.25;67.18
72202;SHT30;60105;54.956;73.412;2022-08-03T02:56:44;17.35;65.30
72202;SHT30;60105;54.956;73.412;2022-08-03T02:59:11;17.42;65.66
72202;SHT30;60105;54.956;73.412;2022-08-03T03:01:39;17.49;65.49
72202;SHT30;60105;54.956;73.412;2022-08-03T03:04:06;17.58;64.40
72202;SHT30;60105;54.956;73.412;2022-08-03T03:06:34;17.68;64.48
72202;SHT30;60105;54.956;73.412;2022-08-03T03:09:01;17.75;64.04
72202;SHT30;60105;54.956;73.412;2022-08-03T03:11:27;17.87;64.07
72202;SHT30;60105;54.956;73.412;2022-08-03T03:13:55;17.91;63.86
72202;SHT30;60105;54.956;73.412;2022-08-03T03:16:32;18.00;63.97
72202;SHT30;60105;54.956;73.412;2022-08-03T03:18:58;18.10;63.55
72202;SHT30;60105;54.956;73.412;2022-08-03T03:21:27;18.14;63.95
72202;SHT30;60105;54.956;73.412;2022-08-03T03:23:55;18.26;63.38
72202;SHT30;60105;54.956;73.412;2022-08-03T03:26:22;18.26;64.22
72202;SHT30;60105;54.956;73.412;2022-08-03T03:28:48;18.34;62.93
72202;SHT30;60105;54.956;73.412;2022-08-03T03:31:14;18.41;64.22
72202;SHT30;60105;54.956;73.412;2022-08-03T03:33:41;18.58;63.04
72202;SHT30;60105;54.956;73.412;2022-08-03T03:36:07;18.64;61.89
72202;SHT30;60105;54.956;73.412;2022-08-03T03:38:35;18.58;61.80
72202;SHT30;60105;54.956;73.412;2022-08-03T03:41:02;18.66;62.41
72202;SHT30;60105;54.956;73.412;2022-08-03T03:43:29;18.71;61.96
72202;SHT30;60105;54.956;73.412;2022-08-03T03:45:58;18.79;63.50
72202;SHT30;60105;54.956;73.412;2022-08-03T03:48:25;18.88;62.13
72202;SHT30;60105;54.956;73.412;2022-08-03T03:50:51;18.99;60.51
72202;SHT30;60105;54.956;73.412;2022-08-03T03:53:17;19.09;60.32
72202;SHT30;60105;54.956;73.412;2022-08-03T03:55:44;19.17;60.26
72202;SHT30;60105;54.956;73.412;2022-08-03T03:58:11;19.28;59.55
72202;SHT30;60105;54.956;73.412;2022-08-03T04:00:42;19.41;58.58
72202;SHT30;60105;54.956;73.412;2022-08-03T04:03:10;19.49;57.44
72202;SHT30;60105;54.956;73.412;2022-08-03T04:05:37;19.54;57.74
72202;SHT30;60105;54.956;73.412;2022-08-03T04:08:22;19.64;56.53
72202;SHT30;60105;54.956;73.412;2022-08-03T04:11:33;19.81;55.35
72202;SHT30;60105;54.956;73.412;2022-08-03T04:14:05;19.82;56.54
72202;SHT30;60105;54.956;73.412;2022-08-03T04:16:35;19.85;57.18
72202;SHT30;60105;54.956;73.412;2022-08-03T04:19:42;19.96;54.96
72202;SHT30;60105;54.956;73.412;2022-08-03T04:22:11;20.11;52.13
72202;SHT30;60105;54.956;73.412;2022-08-03T04:24:46;20.06;52.45
72202;SHT30;60105;54.956;73.412;2022-08-03T04:27:17;20.11;52.08
72202;SHT30;60105;54.956;73.412;2022-08-03T04:29:56;20.19;51.48
72202;SHT30;60105;54.956;73.412;2022-08-03T04:32:24;20.23;52.57
72202;SHT30;60105;54.956;73.412;2022-08-03T04:34:53;20.33;51.84
72202;SHT30;60105;54.956;73.412;2022-08-03T04:37:49;20.37;52.02
72202;SHT30;60105;54.956;73.412;2022-08-03T04:40:24;20.46;51.82
72202;SHT30;60105;54.956;73.412;2022-08-03T04:42:52;20.49;51.51
72202;SHT30;60105;54.956;73.412;2022-08-03T04:45:20;20.59;50.07
72202;SHT30;60105;54.956;73.412;2022-08-03T04:47:47;20.60;50.18
72202;SHT30;60105;54.956;73.412;2022-08-03T04:50:15;20.63;50.48
72202;SHT30;60105;54.956;73.412;2022-08-03T04:52:41;20.67;51.34
72202;SHT30;60105;54.956;73.412;2022-08-03T04:55:08;20.76;48.70
72202;SHT30;60105;54.956;73.412;2022-08-03T04:57:34;20.74;48.96
72202;SHT30;60105;54.956;73.412;2022-08-03T05:00:00;20.80;49.41
72202;SHT30;60105;54.956;73.412;2022-08-03T05:02:37;20.74;49.32
72202;SHT30;60105;54.956;73.412;2022-08-03T05:05:13;20.79;49.12
72202;SHT30;60105;54.956;73.412;2022-08-03T05:07:41;20.83;49.06
72202;SHT30;60105;54.956;73.412;2022-08-03T05:10:09;20.95;49.08
72202;SHT30;60105;54.956;73.412;2022-08-03T05:12:35;20.94;49.40
72202;SHT30;60105;54.956;73.412;2022-08-03T05:15:02;20.91;49.56
72202;SHT30;60105;54.956;73.412;2022-08-03T05:17:29;21.05;51.33
72202;SHT30;60105;54.956;73.412;2022-08-03T05:19:55;21.08;48.30
72202;SHT30;60105;54.956;73.412;2022-08-03T05:22:22;21.10;50.10
72202;SHT30;60105;54.956;73.412;2022-08-03T05:24:52;21.12;48.42
72202;SHT30;60105;54.956;73.412;2022-08-03T05:27:18;21.10;49.20
72202;SHT30;60105;54.956;73.412;2022-08-03T05:29:53;21.12;49.92
72202;SHT30;60105;54.956;73.412;2022-08-03T05:32:19;21.19;49.27
72202;SHT30;60105;54.956;73.412;2022-08-03T05:34:55;21.22;48.09
72202;SHT30;60105;54.956;73.412;2022-08-03T05:37:21;21.25;50.31
72202;SHT30;60105;54.956;73.412;2022-08-03T05:39:47;21.28;48.35
72202;SHT30;60105;54.956;73.412;2022-08-03T05:42:14;21.35;47.18
72202;SHT30;60105;54.956;73.412;2022-08-03T05:44:41;21.31;47.45
72202;SHT30;60105;54.956;73.412;2022-08-03T05:47:07;21.28;47.38
72202;SHT30;60105;54.956;73.412;2022-08-03T05:49:34;21.25;48.25
72202;SHT30;60105;54.956;73.412;2022-08-03T05:52:00;21.39;48.28
72202;SHT30;60105;54.956;73.412;2022-08-03T05:54:26;21.39;47.67
72202;SHT30;60105;54.956;73.412;2022-08-03T05:56:52;21.34;47.49
72202;SHT30;60105;54.956;73.412;2022-08-03T05:59:18;21.48;48.37
72202;SHT30;60105;54.956;73.412;2022-08-03T06:01:45;21.50;47.71
72202;SHT30;60105;54.956;73.412;2022-08-03T06:04:16;21.60;47.05
72202;SHT30;60105;54.956;73.412;2022-08-03T06:06:43;21.59;46.26
72202;SHT30;60105;54.956;73.412;2022-08-03T06:09:13;21.58;46.75
72202;SHT30;60105;54.956;73.412;2022-08-03T06:11:40;21.62;47.39
72202;SHT30;60105;54.956;73.412;2022-08-03T06:14:07;21.75;47.22
72202;SHT30;60105;54.956;73.412;2022-08-03T06:16:38;21.79;46.92
72202;SHT30;60105;54.956;73.412;2022-08-03T06:19:04;21.86;46.17
72202;SHT30;60105;54.956;73.412;2022-08-03T06:21:35;21.72;45.97
72202;SHT30;60105;54.956;73.412;2022-08-03T06:24:11;21.73;45.39
72202;SHT30;60105;54.956;73.412;2022-08-03T06:26:48;21.79;48.66
72202;SHT30;60105;54.956;73.412;2022-08-03T06:29:19;21.89;44.25
72202;SHT30;60105;54.956;73.412;2022-08-03T06:31:46;21.87;45.15
72202;SHT30;60105;54.956;73.412;2022-08-03T06:34:13;21.92;45.46
72202;SHT30;60105;54.956;73.412;2022-08-03T06:36:40;22.00;45.30
72202;SHT30;60105;54.956;73.412;2022-08-03T06:39:11;21.96;44.24
72202;SHT30;60105;54.956;73.412;2022-08-03T06:41:43;21.93;45.12
72202;SHT30;60105;54.956;73.412;2022-08-03T06:44:11;22.06;45.82
72202;SHT30;60105;54.956;73.412;2022-08-03T06:46:37;22.10;45.98
72202;SHT30;60105;54.956;73.412;2022-08-03T06:49:08;22.10;45.86
72202;SHT30;60105;54.956;73.412;2022-08-03T06:51:34;22.22;46.34
72202;SHT30;60105;54.956;73.412;2022-08-03T06:54:05;22.18;44.43
72202;SHT30;60105;54.956;73.412;2022-08-03T06:56:32;22.14;44.13
72202;SHT30;60105;54.956;73.412;2022-08-03T06:58:58;22.00;44.33
72202;SHT30;60105;54.956;73.412;2022-08-03T07:01:25;21.97;45.04
72202;SHT30;60105;54.956;73.412;2022-08-03T07:03:51;22.01;45.68
72202;SHT30;60105;54.956;73.412;2022-08-03T07:06:19;22.14;46.38
72202;SHT30;60105;54.956;73.412;2022-08-03T07:08:55;22.16;45.93
72202;SHT30;60105;54.956;73.412;2022-08-03T07:11:21;22.11;44.97
72202;SHT30;60105;54.956;73.412;2022-08-03T07:13:47;22.25;45.28
72202;SHT30;60105;54.956;73.412;2022-08-03T07:16:13;22.41;44.73
72202;SHT30;60105;54.956;73.412;2022-08-03T07:18:45;22.37;43.70
72202;SHT30;60105;54.956;73.412;2022-08-03T07:21:21;22.43;43.31
72202;SHT30;60105;54.956;73.412;2022-08-03T07:23:52;22.49;44.43
72202;SHT30;60105;54.956;73.412;2022-08-03T07:26:20;22.57;44.23
72202;SHT30;60105;54.956;73.412;2022-08-03T07:28:50;22.49;43.73
72202;SHT30;60105;54.956;73.412;2022-08-03T07:31:26;22.57;44.18
72202;SHT30;60105;54.956;73.412;2022-08-03T07:33:52;22.66;44.47
72202;SHT30;60105;54.956;73.412;2022-08-03T07:36:29;22.78;43.69
72202;SHT30;60105;54.956;73.412;2022-08-03T07:39:02;22.78;43.42
72202;SHT30;60105;54.956;73.412;2022-08-03T07:41:29;22.78;43.82
72202;SHT30;60105;54.956;73.412;2022-08-03T07:43:56;22.79;44.44
72202;SHT30;60105;54.956;73.412;2022-08-03T07:46:28;22.82;43.61
72202;SHT30;60105;54.956;73.412;2022-08-03T07:48:54;22.88;44.37
72202;SHT30;60105;54.956;73.412;2022-08-03T07:51:20;22.96;44.91
72202;SHT30;60105;54.956;73.412;2022-08-03T07:53:56;22.96;44.15
72202;SHT30;60105;54.956;73.412;2022-08-03T07:56:23;22.95;44.50
72202;SHT30;60105;54.956;73.412;2022-08-03T07:58:52;22.98;44.66
72202;SHT30;60105;54.956;73.412;2022-08-03T08:01:19;23.00;43.86
72202;SHT30;60105;54.956;73.412;2022-08-03T08:03:45;22.98;44.55
72202;SHT30;60105;54.956;73.412;2022-08-03T08:06:12;22.96;44.40
72202;SHT30;60105;54.956;73.412;2022-08-03T08:08:38;22.96;44.25
72202;SHT30;60105;54.956;73.412;2022-08-03T08:11:05;22.98;43.65
72202;SHT30;60105;54.956;73.412;2022-08-03T08:13:32;22.92;43.51
72202;SHT30;60105;54.956;73.412;2022-08-03T08:16:03;22.95;43.36
72202;SHT30;60105;54.956;73.412;2022-08-03T08:18:30;23.02;44.85
72202;SHT30;60105;54.956;73.412;2022-08-03T08:20:56;23.06;43.74
72202;SHT30;60105;54.956;73.412;2022-08-03T08:23:23;22.99;44.60
72202;SHT30;60105;54.956;73.412;2022-08-03T08:25:50;23.09;45.40
72202;SHT30;60105;54.956;73.412;2022-08-03T08:28:18;23.13;43.91
72202;SHT30;60105;54.956;73.412;2022-08-03T08:30:44;23.19;43.90
72202;SHT30;60105;54.956;73.412;2022-08-03T08:33:11;23.23;43.77
72202;SHT30;60105;54.956;73.412;2022-08-03T08:35:37;23.16;42.99
72202;SHT30;60105;54.956;73.412;2022-08-03T08:38:03;23.16;44.58
72202;SHT30;60105;54.956;73.412;2022-08-03T08:40:30;23.09;43.50
72202;SHT30;60105;54.956;73.412;2022-08-03T08:42:57;23.09;43.66
72202;SHT30;60105;54.956;73.412;2022-08-03T08:45:34;23.13;43.82
72202;SHT30;60105;54.956;73.412;2022-08-03T08:48:02;23.23;43.49
72202;SHT30;60105;54.956;73.412;2022-08-03T08:50:29;23.22;42.31
72202;SHT30;60105;54.956;73.412;2022-08-03T08:53:01;23.19;43.00
72202;SHT30;60105;54.956;73.412;2022-08-03T08:55:28;23.17;42.08
72202;SHT30;60105;54.956;73.412;2022-08-03T08:58:02;23.28;43.52
72202;SHT30;60105;54.956;73.412;2022-08-03T09:00:31;23.39;43.34
72202;SHT30;60105;54.956;73.412;2022-08-03T09:02:59;23.42;43.37
72202;SHT30;60105;54.956;73.412;2022-08-03T09:05:37;23.44;42.84
72202;SHT30;60105;54.956;73.412;2022-08-03T09:08:13;23.43;42.49
72202;SHT30;60105;54.956;73.412;2022-08-03T09:10:39;23.42;42.41
72202;SHT30;60105;54.956;73.412;2022-08-03T09:13:06;23.44;42.51
72202;SHT30;60105;54.956;73.412;2022-08-03T09:15:33;23.49;42.91
72202;SHT30;60105;54.956;73.412;2022-08-03T09:18:01;23.50;43.80
72202;SHT30;60105;54.956;73.412;2022-08-03T09:20:30;23.57;42.55
72202;SHT30;60105;54.956;73.412;2022-08-03T09:22:59;23.58;42.34
72202;SHT30;60105;54.956;73.412;2022-08-03T09:25:44;23.54;43.09
72202;SHT30;60105;54.956;73.412;2022-08-03T09:28:13;23.61;42.79
72202;SHT30;60105;54.956;73.412;2022-08-03T09:30:41;23.60;44.16
72202;SHT30;60105;54.956;73.412;2022-08-03T09:33:09;23.64;42.31
72202;SHT30;60105;54.956;73.412;2022-08-03T09:35:45;23.57;42.72
72202;SHT30;60105;54.956;73.412;2022-08-03T09:38:14;23.61;42.21
72202;SHT30;60105;54.956;73.412;2022-08-03T09:40:45;23.68;43.98
72202;SHT30;60105;54.956;73.412;2022-08-03T09:43:11;23.63;42.77
72202;SHT30;60105;54.956;73.412;2022-08-03T09:45:48;23.65;42.19
72202;SHT30;60105;54.956;73.412;2022-08-03T09:48:21;23.67;43.65
72202;SHT30;60105;54.956;73.412;2022-08-03T09:50:52;23.82;41.24
72202;SHT30;60105;54.956;73.412;2022-08-03T09:53:28;23.81;42.09
72202;SHT30;60105;54.956;73.412;2022-08-03T09:55:56;23.95;41.28
72202;SHT30;60105;54.956;73.412;2022-08-03T09:58:25;23.91;42.13
72202;SHT30;60105;54.956;73.412;2022-08-03T10:03:24;23.97;41.92
72202;SHT30;60105;54.956;73.412;2022-08-03T10:05:51;24.00;41.49
72202;SHT30;60105;54.956;73.412;2022-08-03T10:08:27;24.00;41.88
72202;SHT30;60105;54.956;73.412;2022-08-03T10:10:58;24.04;42.95
72202;SHT30;60105;54.956;73.412;2022-08-03T10:13:26;24.19;42.70
72202;SHT30;60105;54.956;73.412;2022-08-03T10:15:52;24.11;42.77
72202;SHT30;60105;54.956;73.412;2022-08-03T10:18:18;24.15;42.87
72202;SHT30;60105;54.956;73.412;2022-08-03T10:21:00;24.15;43.00
72202;SHT30;60105;54.956;73.412;2022-08-03T10:23:28;24.09;42.25
72202;SHT30;60105;54.956;73.412;2022-08-03T10:26:01;24.06;42.90
72202;SHT30;60105;54.956;73.412;2022-08-03T10:28:38;24.15;42.04
72202;SHT30;60105;54.956;73.412;2022-08-03T10:31:05;24.06;42.23
72202;SHT30;60105;54.956;73.412;2022-08-03T10:33:36;24.11;41.51
72202;SHT30;60105;54.956;73.412;2022-08-03T10:36:06;24.21;41.66
72202;SHT30;60105;54.956;73.412;2022-08-03T10:38:38;24.30;41.52
72202;SHT30;60105;54.956;73.412;2022-08-03T10:41:06;24.29;41.03
72202;SHT30;60105;54.956;73.412;2022-08-03T10:43:57;24.26;40.41
72202;SHT30;60105;54.956;73.412;2022-08-03T10:46:24;24.18;41.05
72202;SHT30;60105;54.956;73.412;2022-08-03T10:48:51;24.16;41.44
72202;SHT30;60105;54.956;73.412;2022-08-03T10:51:28;24.26;41.06
72202;SHT30;60105;54.956;73.412;2022-08-03T10:53:58;24.30;41.06
72202;SHT30;60105;54.956;73.412;2022-08-03T11:02:12;24.49;41.03
72202;SHT30;60105;54.956;73.412;2022-08-03T11:04:39;24.57;41.32
72202;SHT30;60105;54.956;73.412;2022-08-03T11:09:46;24.60;41.08
72202;SHT30;60105;54.956;73.412;2022-08-03T11:12:30;24.62;40.37
72202;SHT30;60105;54.956;73.412;2022-08-03T11:14:59;24.57;40.53
72202;SHT30;60105;54.956;73.412;2022-08-03T11:17:25;24.50;40.35
72202;SHT30;60105;54.956;73.412;2022-08-03T11:19:52;24.43;40.81
72202;SHT30;60105;54.956;73.412;2022-08-03T11:22:19;24.39;40.78
72202;SHT30;60105;54.956;73.412;2022-08-03T11:27:16;24.37;41.15
72202;SHT30;60105;54.956;73.412;2022-08-03T11:35:29;24.44;40.67
72202;SHT30;60105;54.956;73.412;2022-08-03T11:46:02;24.56;40.94
72202;SHT30;60105;54.956;73.412;2022-08-03T11:48:43;24.56;41.40
72202;SHT30;60105;54.956;73.412;2022-08-03T11:51:27;24.60;40.84
72202;SHT30;60105;54.956;73.412;2022-08-03T11:53:58;24.56;41.25
72202;SHT30;60105;54.956;73.412;2022-08-03T11:56:26;24.56;40.51
72202;SHT30;60105;54.956;73.412;2022-08-03T11:58:55;24.57;41.60
72202;SHT30;60105;54.956;73.412;2022-08-03T12:01:22;24.57;40.90
72202;SHT30;60105;54.956;73.412;2022-08-03T12:03:50;24.56;41.56
72202;SHT30;60105;54.956;73.412;2022-08-03T12:06:17;24.50;41.75
72202;SHT30;60105;54.956;73.412;2022-08-03T12:08:45;24.50;41.45
72202;SHT30;60105;54.956;73.412;2022-08-03T12:11:13;24.52;42.07
72202;SHT30;60105;54.956;73.412;2022-08-03T12:13:45;24.55;41.87
72202;SHT30;60105;54.956;73.412;2022-08-03T12:16:23;24.57;41.25
72202;SHT30;60105;54.956;73.412;2022-08-03T12:19:04;24.55;42.21
72202;SHT30;60105;54.956;73.412;2022-08-03T12:21:31;24.48;42.64
72202;SHT30;60105;54.956;73.412;2022-08-03T12:24:00;24.55;42.81
72202;SHT30;60105;54.956;73.412;2022-08-03T12:26:30;24.48;42.17
72202;SHT30;60105;54.956;73.412;2022-08-03T12:29:07;24.46;42.41
72202;SHT30;60105;54.956;73.412;2022-08-03T12:31:36;24.52;42.28
72202;SHT30;60105;54.956;73.412;2022-08-03T12:34:03;24.40;42.92
72202;SHT30;60105;54.956;73.412;2022-08-03T12:36:33;24.46;43.48
72202;SHT30;60105;54.956;73.412;2022-08-03T12:39:02;24.49;43.09
72202;SHT30;60105;54.956;73.412;2022-08-03T12:41:33;24.48;43.20
72202;SHT30;60105;54.956;73.412;2022-08-03T12:44:04;24.43;43.36
72202;SHT30;60105;54.956;73.412;2022-08-03T12:46:37;24.42;43.04
72202;SHT30;60105;54.956;73.412;2022-08-03T12:49:09;24.43;43.69
72202;SHT30;60105;54.956;73.412;2022-08-03T12:51:54;24.37;43.50
72202;SHT30;60105;54.956;73.412;2022-08-03T12:54:24;24.42;44.69
72202;SHT30;60105;54.956;73.412;2022-08-03T12:56:58;24.39;43.97
72202;SHT30;60105;54.956;73.412;2022-08-03T12:59:34;24.37;45.22
72202;SHT30;60105;54.956;73.412;2022-08-03T13:02:03;24.36;45.10
72202;SHT30;60105;54.956;73.412;2022-08-03T13:04:31;24.43;46.19
72202;SHT30;60105;54.956;73.412;2022-08-03T13:07:06;24.40;44.81
72202;SHT30;60105;54.956;73.412;2022-08-03T13:09:44;24.36;45.16
72202;SHT30;60105;54.956;73.412;2022-08-03T13:12:23;24.33;44.84
72202;SHT30;60105;54.956;73.412;2022-08-03T13:14:56;24.26;44.95
72202;SHT30;60105;54.956;73.412;2022-08-03T13:17:23;24.23;45.29
72202;SHT30;60105;54.956;73.412;2022-08-03T13:19:50;24.21;45.40
72202;SHT30;60105;54.956;73.412;2022-08-03T13:22:26;24.15;45.63
72202;SHT30;60105;54.956;73.412;2022-08-03T13:24:57;24.04;45.14
72202;SHT30;60105;54.956;73.412;2022-08-03T13:27:26;24.04;45.58
72202;SHT30;60105;54.956;73.412;2022-08-03T13:29:53;23.97;45.18
72202;SHT30;60105;54.956;73.412;2022-08-03T13:32:20;23.92;45.59
72202;SHT30;60105;54.956;73.412;2022-08-03T13:34:47;23.95;45.51
72202;SHT30;60105;54.956;73.412;2022-08-03T13:37:13;23.91;45.63
72202;SHT30;60105;54.956;73.412;2022-08-03T13:39:40;23.89;45.66
72202;SHT30;60105;54.956;73.412;2022-08-03T13:42:07;23.78;46.19
72202;SHT30;60105;54.956;73.412;2022-08-03T13:44:33;23.78;46.64
72202;SHT30;60105;54.956;73.412;2022-08-03T13:47:02;23.75;47.74
72202;SHT30;60105;54.956;73.412;2022-08-03T13:49:28;23.73;46.15
72202;SHT30;60105;54.956;73.412;2022-08-03T13:51:55;23.64;46.96
72202;SHT30;60105;54.956;73.412;2022-08-03T13:54:22;23.78;46.71
72202;SHT30;60105;54.956;73.412;2022-08-03T13:56:48;23.88;46.63
72202;SHT30;60105;54.956;73.412;2022-08-03T13:59:19;23.94;46.08
72202;SHT30;60105;54.956;73.412;2022-08-03T14:01:49;23.70;46.40
72202;SHT30;60105;54.956;73.412;2022-08-03T14:04:16;23.49;46.94
72202;SHT30;60105;54.956;73.412;2022-08-03T14:06:43;23.33;47.17
72202;SHT30;60105;54.956;73.412;2022-08-03T14:09:13;23.22;47.35
72202;SHT30;60105;54.956;73.412;2022-08-03T14:11:41;23.13;48.33
72202;SHT30;60105;54.956;73.412;2022-08-03T14:14:07;23.12;48.13
72202;SHT30;60105;54.956;73.412;2022-08-03T14:16:35;23.03;48.39
72202;SHT30;60105;54.956;73.412;2022-08-03T14:19:02;23.00;48.59
72202;SHT30;60105;54.956;73.412;2022-08-03T14:21:28;22.91;49.11
72202;SHT30;60105;54.956;73.412;2022-08-03T14:23:55;22.88;49.20
72202;SHT30;60105;54.956;73.412;2022-08-03T14:26:21;22.81;49.14
72202;SHT30;60105;54.956;73.412;2022-08-03T14:28:47;22.72;49.30
72202;SHT30;60105;54.956;73.412;2022-08-03T14:31:14;22.61;49.89
72202;SHT30;60105;54.956;73.412;2022-08-03T14:33:40;22.57;50.17
72202;SHT30;60105;54.956;73.412;2022-08-03T14:36:06;22.51;50.32
72202;SHT30;60105;54.956;73.412;2022-08-03T14:38:32;22.47;50.82
72202;SHT30;60105;54.956;73.412;2022-08-03T14:40:59;22.41;50.68
72202;SHT30;60105;54.956;73.412;2022-08-03T14:43:25;22.37;51.49
72202;SHT30;60105;54.956;73.412;2022-08-03T14:45:52;22.34;51.44
72202;SHT30;60105;54.956;73.412;2022-08-03T14:48:19;22.30;51.76
72202;SHT30;60105;54.956;73.412;2022-08-03T14:50:45;22.25;52.00
72202;SHT30;60105;54.956;73.412;2022-08-03T14:53:18;22.22;52.08
72202;SHT30;60105;54.956;73.412;2022-08-03T14:55:47;22.16;52.36
72202;SHT30;60105;54.956;73.412;2022-08-03T14:58:24;22.11;52.37
72202;SHT30;60105;54.956;73.412;2022-08-03T15:00:52;22.04;52.51
72202;SHT30;60105;54.956;73.412;2022-08-03T15:03:22;21.99;52.83
72202;SHT30;60105;54.956;73.412;2022-08-03T15:05:54;21.92;53.29
72202;SHT30;60105;54.956;73.412;2022-08-03T15:08:23;21.86;53.25
72202;SHT30;60105;54.956;73.412;2022-08-03T15:10:50;21.82;53.51
72202;SHT30;60105;54.956;73.412;2022-08-03T15:13:17;21.76;53.74
72202;SHT30;60105;54.956;73.412;2022-08-03T15:15:44;21.69;53.93
72202;SHT30;60105;54.956;73.412;2022-08-03T15:18:10;21.65;54.04
72202;SHT30;60105;54.956;73.412;2022-08-03T15:20:37;21.60;54.23
72202;SHT30;60105;54.956;73.412;2022-08-03T15:23:07;21.58;54.40
72202;SHT30;60105;54.956;73.412;2022-08-03T15:25:34;21.49;54.99
72202;SHT30;60105;54.956;73.412;2022-08-03T15:28:07;21.45;55.07
72202;SHT30;60105;54.956;73.412;2022-08-03T15:30:42;21.39;55.16
72202;SHT30;60105;54.956;73.412;2022-08-03T15:33:08;21.35;55.42
72202;SHT30;60105;54.956;73.412;2022-08-03T15:35:34;21.32;55.69
72202;SHT30;60105;54.956;73.412;2022-08-03T15:38:05;21.25;55.95
72202;SHT30;60105;54.956;73.412;2022-08-03T15:40:32;21.25;56.09
72202;SHT30;60105;54.956;73.412;2022-08-03T15:42:59;21.17;56.32
72202;SHT30;60105;54.956;73.412;2022-08-03T15:45:26;21.14;56.46
72202;SHT30;60105;54.956;73.412;2022-08-03T15:47:53;21.10;56.73
72202;SHT30;60105;54.956;73.412;2022-08-03T15:50:19;21.05;56.88
72202;SHT30;60105;54.956;73.412;2022-08-03T15:52:45;21.02;57.08
72202;SHT30;60105;54.956;73.412;2022-08-03T15:55:11;21.00;57.22
72202;SHT30;60105;54.956;73.412;2022-08-03T15:57:37;20.95;57.14
72202;SHT30;60105;54.956;73.412;2022-08-03T16:00:05;20.97;57.45
72202;SHT30;60105;54.956;73.412;2022-08-03T16:02:32;20.92;57.53
72202;SHT30;60105;54.956;73.412;2022-08-03T16:04:58;20.85;57.58
72202;SHT30;60105;54.956;73.412;2022-08-03T16:07:24;20.84;57.67
72202;SHT30;60105;54.956;73.412;2022-08-03T16:10:12;20.81;58.09
72202;SHT30;60105;54.956;73.412;2022-08-03T16:12:39;20.77;58.16
72202;SHT30;60105;54.956;73.412;2022-08-03T16:15:08;20.73;58.41